createdAt,value
2019-04-06T00:00:34.712Z,24.57
2019-04-06T00:04:39.643Z,26.85
2019-04-06T00:08:45.624Z,24.20
2019-04-06T00:12:50.563Z,25.25
2019-04-06T00:16:55.729Z,25.48
2019-04-06T00:21:00.491Z,23.32
2019-04-06T00:25:06.630Z,24.60
2019-04-06T00:29:11.448Z,23.77
2019-04-06T00:33:18.073Z,23.38
2019-04-06T00:37:22.907Z,26.05
2019-04-06T00:41:29.304Z,25.30
2019-04-06T00:45:34.149Z,23.12
2019-04-06T00:49:39.041Z,24.20
2019-04-06T00:53:43.975Z,22.37
2019-04-06T00:57:48.699Z,22.80
2019-04-06T01:01:53.564Z,22.22
2019-04-06T01:05:58.347Z,21.45
2019-04-06T01:10:03.221Z,22.65
2019-04-06T01:14:08.767Z,22.25
2019-04-06T01:18:13.655Z,21.17
2019-04-06T01:22:18.529Z,22.82
2019-04-06T01:26:23.403Z,23.20
2019-04-06T01:30:28.492Z,23.62
2019-04-06T01:34:33.677Z,25.30
2019-04-06T01:38:40.762Z,24.43
2019-04-06T01:42:45.924Z,22.22
2019-04-06T01:46:52.404Z,24.30
2019-04-06T01:50:57.171Z,24.23
2019-04-06T01:55:01.941Z,23.40
2019-04-06T01:59:06.840Z,23.98
2019-04-06T02:03:11.771Z,25.25
2019-04-06T02:07:16.886Z,24.75
2019-04-06T02:11:22.988Z,24.82
2019-04-06T02:15:27.706Z,24.45
2019-04-06T02:19:32.444Z,24.57
2019-04-06T02:23:37.336Z,23.25
2019-04-06T02:27:42.068Z,24.32
2019-04-06T02:32:02.126Z,24.35
2019-04-06T02:36:33.278Z,25.55
2019-04-06T02:40:49.565Z,24.85
2019-04-06T02:44:55.675Z,23.90
2019-04-06T02:49:00.637Z,25.45
2019-04-06T02:53:05.545Z,23.55
2019-04-06T02:57:10.343Z,25.27
2019-04-06T03:01:15.499Z,23.67
2019-04-06T03:05:20.409Z,24.72
2019-04-06T03:09:25.619Z,24.72
2019-04-06T03:13:30.775Z,25.57
2019-04-06T03:17:35.580Z,24.20
2019-04-06T03:21:40.660Z,25.02
2019-04-06T03:25:45.521Z,24.82
2019-04-06T03:29:57.586Z,26.90
2019-04-06T03:33:57.021Z,26.80
2019-04-06T03:38:03.159Z,25.10
2019-04-06T03:42:10.800Z,25.72
2019-04-06T03:46:15.157Z,25.95
2019-04-06T03:50:20.187Z,25.00
2019-04-06T03:54:25.378Z,25.15
2019-04-06T03:58:30.203Z,25.57
2019-04-06T04:02:35.133Z,24.95
2019-04-06T04:06:39.990Z,24.20
2019-04-06T04:10:47.340Z,24.67
2019-04-06T04:14:51.232Z,27.17
2019-04-06T04:18:56.045Z,26.97
2019-04-06T04:23:00.920Z,27.50
2019-04-06T04:27:06.893Z,25.05
2019-04-06T04:31:11.705Z,27.60
2019-04-06T04:35:18.553Z,29.07
2019-04-06T04:39:22.968Z,27.52
2019-04-06T04:43:27.945Z,27.48
2019-04-06T04:47:32.690Z,26.50
2019-04-06T04:51:37.431Z,27.13
2019-04-06T04:55:42.297Z,27.60
2019-04-06T04:59:47.107Z,27.45
2019-04-06T05:03:51.964Z,26.90
2019-04-06T05:07:57.088Z,26.25
2019-04-06T05:12:02.322Z,27.80
2019-04-06T05:16:11.660Z,26.80
2019-04-06T05:20:16.852Z,26.45
2019-04-06T05:24:21.586Z,25.68
2019-04-06T05:28:26.327Z,26.68
2019-04-06T05:32:31.416Z,24.95
2019-04-06T05:36:36.215Z,25.12
2019-04-06T05:40:41.041Z,25.72
2019-04-06T05:44:46.031Z,25.25
2019-04-06T05:48:50.894Z,27.82
2019-04-06T05:52:56.315Z,28.40
2019-04-06T05:57:01.138Z,26.57
2019-04-06T06:01:06.440Z,26.68
2019-04-06T06:05:11.514Z,26.60
2019-04-06T06:09:16.679Z,29.05
2019-04-06T06:13:21.648Z,30.00
2019-04-06T06:17:26.617Z,29.98
2019-04-06T06:21:32.017Z,28.20
2019-04-06T06:25:37.295Z,28.02
2019-04-06T06:29:42.215Z,29.52
2019-04-06T06:33:47.259Z,28.98
2019-04-06T06:37:52.562Z,30.08
2019-04-06T06:41:57.872Z,31.10
2019-04-06T06:46:03.009Z,28.95
2019-04-06T06:50:08.596Z,26.68
2019-04-06T06:54:13.688Z,27.67
2019-04-06T06:58:25.136Z,29.67
2019-04-06T07:02:25.467Z,30.57
2019-04-06T07:06:30.387Z,31.02
2019-04-06T07:10:35.207Z,30.35
2019-04-06T07:14:40.297Z,30.05
2019-04-06T07:18:45.288Z,31.23
2019-04-06T07:22:50.227Z,28.30
2019-04-06T07:26:55.504Z,29.55
2019-04-06T07:31:02.984Z,30.45
2019-04-06T07:35:08.360Z,32.03
2019-04-06T07:39:14.778Z,30.20
2019-04-06T07:43:19.957Z,32.88
2019-04-06T07:47:25.024Z,32.88
2019-04-06T07:51:30.337Z,33.25
2019-04-06T07:55:36.928Z,31.02
2019-04-06T07:59:43.142Z,32.65
2019-04-06T08:03:48.202Z,34.55
2019-04-06T08:07:53.108Z,32.10
2019-04-06T08:11:58.154Z,31.37
2019-04-06T08:16:03.401Z,31.48
2019-04-06T08:20:08.892Z,32.88
2019-04-06T08:24:13.978Z,34.78
2019-04-06T08:28:19.129Z,35.28
2019-04-06T08:32:24.180Z,35.50
2019-04-06T08:36:30.210Z,34.55
2019-04-06T08:40:35.265Z,34.92
2019-04-06T08:44:40.553Z,36.48
2019-04-06T08:48:45.466Z,35.90
2019-04-06T08:52:51.117Z,34.35
2019-04-06T08:56:56.391Z,33.28
2019-04-06T09:01:04.628Z,31.57
2019-04-06T09:05:09.672Z,32.88
2019-04-06T09:09:14.507Z,32.73
2019-04-06T09:13:19.651Z,30.72
2019-04-06T09:17:24.648Z,32.95
2019-04-06T09:21:29.589Z,31.57
2019-04-06T09:25:34.575Z,29.90
2019-04-06T09:29:39.514Z,28.67
2019-04-06T09:33:44.741Z,29.40
2019-04-06T09:37:49.871Z,29.32
2019-04-06T09:41:55.426Z,29.00
2019-04-06T09:46:13.786Z,29.20
2019-04-06T09:50:34.436Z,28.40
2019-04-06T09:54:51.459Z,25.92
2019-04-06T09:59:07.641Z,27.45
2019-04-06T10:03:38.818Z,24.20
2019-04-06T10:07:49.588Z,22.77
2019-04-06T10:12:19.905Z,26.27
2019-04-06T10:16:59.747Z,24.63
2019-04-06T10:21:24.040Z,25.20
2019-04-06T10:26:03.300Z,26.02
2019-04-06T10:30:26.857Z,23.32
2019-04-06T10:34:49.548Z,19.70
2019-04-06T10:39:16.280Z,21.42
2019-04-06T10:43:38.503Z,20.77
2019-04-06T10:52:17.803Z,22.30
2019-04-06T10:56:34.016Z,19.82
2019-04-06T11:00:51.169Z,21.60
2019-04-06T11:05:06.622Z,20.72
2019-04-06T11:09:29.302Z,21.60
2019-04-06T11:14:08.693Z,21.25
2019-04-06T11:18:29.145Z,21.37
2019-04-06T11:23:05.671Z,22.52
2019-04-06T11:27:27.762Z,23.77
2019-04-06T11:31:42.692Z,21.80
2019-04-06T11:36:18.714Z,20.57
2019-04-06T11:40:41.295Z,19.07
2019-04-06T11:45:11.494Z,19.13
2019-04-06T11:49:22.642Z,20.23
2019-04-06T11:53:45.005Z,21.33
2019-04-06T11:58:07.891Z,21.70
2019-04-06T12:02:32.294Z,20.70
2019-04-06T12:06:56.760Z,19.73
2019-04-06T12:11:25.877Z,18.73
2019-04-06T12:15:46.092Z,18.50
2019-04-06T12:20:16.070Z,17.05
2019-04-06T12:24:42.908Z,15.68
2019-04-06T12:29:05.479Z,14.93
2019-04-06T12:33:25.504Z,15.53
2019-04-06T12:37:49.436Z,17.00
2019-04-06T12:42:25.560Z,14.75
2019-04-06T12:46:50.788Z,14.83
2019-04-06T12:51:33.222Z,14.58
2019-04-06T12:55:48.877Z,14.43
2019-04-06T13:00:15.946Z,14.13
2019-04-06T13:04:58.352Z,15.70
2019-04-06T13:09:28.463Z,14.70
2019-04-06T13:13:45.548Z,12.58
2019-04-06T13:18:08.500Z,10.88
2019-04-06T13:22:31.520Z,11.55
2019-04-06T13:26:54.347Z,10.10
2019-04-06T13:31:12.868Z,9.75
2019-04-06T13:35:35.612Z,9.30
2019-04-06T13:39:58.268Z,8.95
2019-04-06T13:44:28.482Z,8.20
2019-04-06T13:48:55.559Z,9.28
2019-04-06T13:53:07.892Z,8.83
2019-04-06T13:57:24.788Z,7.95
2019-04-06T14:01:39.430Z,9.15
2019-04-06T14:06:12.718Z,8.13
2019-04-06T14:10:33.571Z,8.18
2019-04-06T14:14:45.716Z,9.10
2019-04-06T14:19:19.456Z,8.30
2019-04-06T14:23:31.200Z,8.13
2019-04-06T14:32:16.556Z,8.70
2019-04-06T14:36:34.349Z,8.38
2019-04-06T14:40:52.685Z,7.33
2019-04-06T14:45:17.869Z,8.50
2019-04-06T14:49:33.087Z,7.62
2019-04-06T14:53:43.431Z,7.12
2019-04-06T14:57:56.790Z,7.62
2019-04-06T15:02:11.287Z,7.12
2019-04-06T15:06:35.132Z,7.65
2019-04-06T15:10:53.952Z,7.25
2019-04-06T15:15:16.862Z,7.50
2019-04-06T15:19:35.835Z,6.92
2019-04-06T15:23:51.567Z,7.45
2019-04-06T15:28:11.140Z,6.97
2019-04-06T15:32:38.295Z,6.85
2019-04-06T15:37:02.668Z,5.67
2019-04-06T15:41:30.046Z,6.72
2019-04-06T15:46:04.289Z,5.75
2019-04-06T15:50:31.365Z,5.50
2019-04-06T15:54:58.328Z,5.30
2019-04-06T15:59:09.599Z,5.78
2019-04-06T16:03:32.685Z,5.17
2019-04-06T16:08:18.445Z,5.15
2019-04-06T16:12:32.620Z,5.10
2019-04-06T16:16:56.619Z,4.92
2019-04-06T16:21:20.930Z,5.35
2019-04-06T16:25:32.013Z,4.40
2019-04-06T16:29:46.278Z,4.43
2019-04-06T16:34:11.805Z,4.67
2019-04-06T16:38:45.058Z,4.45
2019-04-06T16:42:56.852Z,5.47
2019-04-06T16:47:11.423Z,4.17
2019-04-06T16:51:29.828Z,4.47
2019-04-06T16:55:44.629Z,4.10
2019-04-06T17:00:17.020Z,5.33
2019-04-06T17:04:29.734Z,7.60
2019-04-06T17:08:43.643Z,6.75
2019-04-06T17:12:56.935Z,7.37
2019-04-06T17:17:17.565Z,5.47
2019-04-06T17:21:31.563Z,4.80
2019-04-06T17:25:46.367Z,5.28
2019-04-06T17:30:06.740Z,4.85
2019-04-06T17:34:19.947Z,5.80
2019-04-06T17:38:42.074Z,6.60
2019-04-06T17:43:04.879Z,6.00
2019-04-06T17:47:34.875Z,5.97
2019-04-06T17:52:05.623Z,5.30
2019-04-06T17:56:38.815Z,5.03
2019-04-06T18:00:59.927Z,5.20
2019-04-06T18:05:30.552Z,5.95
2019-04-06T18:09:40.076Z,5.28
2019-04-06T18:13:50.026Z,5.45
2019-04-06T18:17:55.000Z,5.33
2019-04-06T18:22:00.635Z,5.50
2019-04-06T18:26:06.022Z,6.03
2019-04-06T18:30:11.437Z,5.60
2019-04-06T18:34:17.580Z,5.65
2019-04-06T18:38:27.436Z,5.78
2019-04-06T18:42:33.174Z,5.97
2019-04-06T18:46:40.551Z,6.42
2019-04-06T18:50:46.296Z,5.47
2019-04-06T18:54:52.111Z,5.62
2019-04-06T18:58:59.772Z,6.33
2019-04-06T19:03:17.407Z,6.10
2019-04-06T19:07:12.091Z,7.55
2019-04-06T19:11:17.382Z,6.45
2019-04-06T19:15:24.374Z,6.47
2019-04-06T19:19:31.279Z,6.50
2019-04-06T19:23:37.926Z,6.67
2019-04-06T19:27:43.264Z,6.90
2019-04-06T19:31:48.388Z,6.65
2019-04-06T19:35:53.404Z,6.33
2019-04-06T19:39:58.508Z,7.05
2019-04-06T19:44:03.963Z,6.80
2019-04-06T19:48:09.598Z,6.35
2019-04-06T19:52:34.746Z,6.62
2019-04-06T19:56:40.012Z,8.13
2019-04-06T20:00:46.886Z,8.33
2019-04-06T20:04:58.169Z,7.72
2019-04-06T20:09:06.186Z,6.67
2019-04-06T20:13:12.950Z,6.37
2019-04-06T20:17:18.608Z,5.87
2019-04-06T20:21:24.302Z,6.55
2019-04-06T20:25:29.594Z,6.12
2019-04-06T20:29:34.666Z,6.37
2019-04-06T20:33:48.254Z,7.00
2019-04-06T20:37:46.824Z,6.15
2019-04-06T20:41:52.952Z,6.28
2019-04-06T20:46:00.940Z,7.08
2019-04-06T20:50:09.253Z,6.30
2019-04-06T20:54:14.253Z,6.58
2019-04-06T20:58:19.428Z,5.65
2019-04-06T21:02:24.708Z,6.35
2019-04-06T21:06:29.772Z,7.33
2019-04-06T21:10:35.167Z,6.62
2019-04-06T21:14:40.530Z,6.85
2019-04-06T21:18:45.472Z,7.20
2019-04-06T21:22:50.761Z,7.80
2019-04-06T21:26:56.560Z,7.20
2019-04-06T21:31:02.339Z,6.47
2019-04-06T21:35:07.320Z,6.20
2019-04-06T21:39:12.449Z,5.97
2019-04-06T21:43:17.862Z,5.90
2019-04-06T21:47:24.074Z,6.85
2019-04-06T21:51:30.943Z,6.47
2019-04-06T21:55:37.919Z,5.80
2019-04-06T21:59:43.949Z,5.17
2019-04-06T22:03:50.670Z,5.28
2019-04-06T22:07:56.370Z,4.65
2019-04-06T22:12:02.226Z,4.60
2019-04-06T22:16:09.607Z,5.12
2019-04-06T22:20:15.339Z,4.85
2019-04-06T22:24:21.298Z,4.95
2019-04-06T22:28:26.897Z,3.90
2019-04-06T22:32:32.313Z,3.92
2019-04-06T22:36:37.491Z,4.50
2019-04-06T22:40:42.856Z,3.77
2019-04-06T22:44:48.892Z,3.98
2019-04-06T22:48:53.885Z,4.03
2019-04-06T22:53:01.642Z,3.83
2019-04-06T22:57:09.067Z,3.25
2019-04-06T23:01:16.331Z,3.58
2019-04-06T23:05:29.542Z,3.10
2019-04-06T23:09:34.580Z,3.83
2019-04-06T23:13:39.756Z,3.83
2019-04-06T23:17:44.752Z,3.12
2019-04-06T23:22:09.068Z,3.10
2019-04-06T23:26:14.593Z,3.35
2019-04-06T23:30:19.609Z,2.85
2019-04-06T23:34:24.870Z,3.55
2019-04-06T23:38:29.941Z,3.37
2019-04-06T23:42:35.389Z,3.62
2019-04-06T23:46:40.692Z,4.03
2019-04-06T23:50:45.713Z,4.80
2019-04-06T23:54:50.888Z,3.90
2019-04-06T23:58:55.809Z,3.62
